createdAt,value
2022-09-10T11:10:28.920Z,99892.72
2022-09-10T11:13:22.027Z,99889.78
2022-09-10T11:16:01.212Z,99751.56
2022-09-10T11:18:31.654Z,99772.03
2022-09-10T11:21:12.956Z,99883.63
2022-09-10T11:23:52.475Z,99892.78
2022-09-10T11:26:29.900Z,99816.41
2022-09-10T11:29:03.795Z,99862.06
2022-09-10T11:31:40.448Z,99864.91
2022-09-10T11:34:19.037Z,100073.72
2022-09-10T11:36:49.273Z,100074.94
2022-09-10T11:39:34.713Z,100149.00
2022-09-10T11:42:05.637Z,100228.97
2022-09-10T11:44:35.841Z,100232.72
2022-09-10T11:47:14.758Z,100321.16
2022-09-10T11:50:03.202Z,100341.63
2022-09-10T11:52:30.859Z,100359.00
2022-09-10T11:54:57.693Z,100368.31
2022-09-10T11:57:58.158Z,100370.00
2022-09-10T12:00:25.746Z,100385.53
2022-09-10T12:02:55.243Z,100381.97
2022-09-10T12:05:43.657Z,100380.34
2022-09-10T12:08:24.980Z,100366.75
2022-09-10T12:11:05.446Z,100366.38
2022-09-10T12:13:34.758Z,100344.38
2022-09-10T12:16:04.331Z,100344.13
2022-09-10T12:18:52.696Z,100332.22
2022-09-10T12:21:39.668Z,100337.13
2022-09-10T12:24:38.529Z,100317.34
2022-09-10T12:27:06.268Z,100319.09
2022-09-10T12:29:36.641Z,100304.78
2022-09-10T12:32:28.489Z,100333.03
2022-09-10T12:35:35.436Z,100310.22
2022-09-10T12:38:42.761Z,100297.50
2022-09-10T12:41:21.314Z,100264.28
2022-09-10T12:43:47.874Z,100235.66
2022-09-10T12:46:14.289Z,100226.72
2022-09-10T12:48:45.309Z,100234.94
2022-09-10T12:51:19.432Z,100210.75
2022-09-10T12:54:04.071Z,100241.59
2022-09-10T12:56:37.655Z,100261.06
2022-09-10T12:59:17.338Z,100289.59
2022-09-10T13:01:46.348Z,100284.63
2022-09-10T13:04:36.988Z,100256.97
2022-09-10T13:07:23.234Z,100261.66
2022-09-10T13:10:01.010Z,100279.00
2022-09-10T13:12:27.473Z,100279.25
2022-09-10T13:14:54.404Z,100296.41
2022-09-10T13:17:37.067Z,100281.84
2022-09-10T13:20:29.681Z,100258.81
2022-09-10T13:23:05.969Z,100245.09
2022-09-10T13:25:48.353Z,100228.91
2022-09-10T13:28:30.092Z,100212.25
2022-09-10T13:31:03.664Z,100194.22
2022-09-10T13:33:30.506Z,100151.78
2022-09-10T13:36:10.503Z,100184.00
2022-09-10T13:39:15.320Z,100129.69
2022-09-10T13:42:03.160Z,100102.06
2022-09-10T13:44:38.585Z,100035.88
2022-09-10T13:47:11.596Z,100039.75
2022-09-10T13:49:47.306Z,100009.44
2022-09-10T13:52:15.982Z,100002.16
2022-09-10T13:54:46.418Z,100055.63
2022-09-10T13:57:16.203Z,100153.84
2022-09-10T13:59:42.623Z,100219.44
2022-09-10T14:02:09.143Z,100267.13
2022-09-10T14:04:36.905Z,100274.84
2022-09-10T14:07:03.304Z,100273.56
2022-09-10T14:09:29.773Z,100283.78
2022-09-10T14:11:56.568Z,100301.38
2022-09-10T14:14:28.660Z,100299.94
2022-09-10T14:16:58.460Z,100291.91
2022-09-10T14:19:51.107Z,100301.28
2022-09-10T14:22:25.714Z,100307.63
2022-09-10T14:24:56.290Z,100324.53
2022-09-10T14:27:33.363Z,100333.34
2022-09-10T14:30:18.365Z,100342.28
2022-09-10T14:32:46.133Z,100348.63
2022-09-10T14:35:39.112Z,100340.88
2022-09-10T14:38:26.793Z,100352.84
2022-09-10T14:41:04.343Z,100342.22
2022-09-10T14:43:38.346Z,100341.50
2022-09-10T14:46:08.874Z,100340.50
2022-09-10T14:48:42.629Z,100340.50
2022-09-10T14:51:17.447Z,100341.72
2022-09-10T14:53:51.170Z,100340.75
2022-09-10T14:56:37.447Z,100336.00
2022-09-10T14:59:06.327Z,100331.97
2022-09-10T15:01:32.843Z,100329.03
2022-09-10T15:03:59.842Z,100335.25
2022-09-10T15:06:26.923Z,100336.31
2022-09-10T15:08:56.003Z,100331.31
2022-09-10T15:11:24.080Z,100332.09
2022-09-10T15:13:51.070Z,100336.03
2022-09-10T15:16:17.807Z,100332.47
2022-09-10T15:18:44.222Z,100333.09
2022-09-10T15:21:12.853Z,100332.47
2022-09-10T15:23:39.345Z,100327.97
2022-09-10T15:26:06.425Z,100340.16
2022-09-10T15:28:33.119Z,100344.16
2022-09-10T15:30:59.531Z,100338.25
2022-09-10T15:33:26.475Z,100333.38
2022-09-10T15:35:52.878Z,100319.63
2022-09-10T15:38:21.171Z,100303.59
2022-09-10T15:40:51.159Z,100289.13
2022-09-10T15:43:21.770Z,100286.56
2022-09-10T15:45:48.734Z,100281.00
2022-09-10T15:48:15.128Z,100267.63
2022-09-10T15:50:43.238Z,100267.88
2022-09-10T15:53:12.043Z,100255.50
2022-09-10T15:55:38.972Z,100258.66
2022-09-10T15:58:05.516Z,100256.22
2022-09-10T16:00:33.553Z,100247.72
2022-09-10T16:03:00.867Z,100244.00
2022-09-10T16:05:27.279Z,100240.63
2022-09-10T16:07:53.728Z,100222.59
2022-09-10T16:10:20.197Z,100212.13
2022-09-10T16:12:46.864Z,100224.75
2022-09-10T16:15:13.228Z,100210.88
2022-09-10T16:17:40.831Z,100215.50
2022-09-10T16:20:07.525Z,100191.28
2022-09-10T16:22:33.896Z,100153.06
2022-09-10T16:25:00.386Z,100099.88
2022-09-10T16:27:26.896Z,100080.47
2022-09-10T16:29:53.475Z,100059.25
2022-09-10T16:32:19.945Z,100044.00
2022-09-10T16:34:46.349Z,100014.19
2022-09-10T16:37:13.492Z,99978.13
2022-09-10T16:39:40.287Z,99657.38
2022-09-10T16:42:07.044Z,99596.59
2022-09-10T16:44:33.530Z,99561.00
2022-09-10T16:46:59.996Z,99529.81
2022-09-10T16:49:27.370Z,99446.47
2022-09-10T16:51:54.323Z,99379.94
2022-09-10T16:54:21.288Z,99337.28
2022-09-10T16:56:48.276Z,99301.19
2022-09-10T16:59:21.687Z,99281.13
2022-09-10T17:01:48.529Z,99228.16
2022-09-10T17:04:19.798Z,99170.19
2022-09-10T17:06:48.168Z,99114.13
2022-09-10T17:09:14.697Z,99056.16
2022-09-10T17:11:41.244Z,98990.91
2022-09-10T17:14:08.215Z,98968.47
2022-09-10T17:16:37.433Z,98933.66
2022-09-10T17:19:08.675Z,98933.22
2022-09-10T17:21:36.026Z,98897.97
2022-09-10T17:24:03.129Z,98815.09
2022-09-10T17:26:29.799Z,98666.34
2022-09-10T17:28:58.727Z,98646.09
2022-09-10T17:31:25.482Z,98648.34
2022-09-10T17:33:51.947Z,98656.84
2022-09-10T17:36:18.378Z,98626.75
2022-09-10T17:38:45.872Z,98537.97
2022-09-10T17:41:14.449Z,98331.41
2022-09-10T17:43:42.427Z,98231.03
2022-09-10T17:46:14.604Z,98225.44
2022-09-10T17:48:45.583Z,98142.41
2022-09-10T17:51:13.294Z,98035.94
2022-09-10T17:53:39.808Z,98048.56
2022-09-10T17:56:07.076Z,98163.44
2022-09-10T17:58:33.956Z,98219.09
2022-09-10T18:01:23.270Z,98246.47
2022-09-10T18:03:50.469Z,98228.34
2022-09-10T18:06:16.960Z,98187.13
2022-09-10T18:08:43.405Z,98038.66
2022-09-10T18:11:11.614Z,97873.63
2022-09-10T18:13:38.054Z,97801.06
2022-09-10T18:16:09.129Z,97723.25
2022-09-10T18:18:36.137Z,97543.75
2022-09-10T18:21:19.591Z,97524.19
2022-09-10T18:23:55.595Z,97444.56
2022-09-10T18:26:23.628Z,97321.56
2022-09-10T18:28:56.113Z,97288.72
2022-09-10T18:31:23.960Z,97178.81
2022-09-10T18:33:50.429Z,97047.72
2022-09-10T18:36:18.095Z,96976.63
2022-09-10T18:38:44.612Z,97032.47
2022-09-10T18:41:23.404Z,97006.97
2022-09-10T18:43:50.240Z,96960.97
2022-09-10T18:46:16.893Z,96975.16
2022-09-10T18:48:44.119Z,96929.59
2022-09-10T18:51:11.581Z,96905.91
2022-09-10T18:53:38.717Z,96816.13
2022-09-10T18:56:09.938Z,96748.84
2022-09-10T18:58:37.134Z,96789.97
2022-09-10T19:01:05.907Z,96731.25
2022-09-10T19:03:36.981Z,96695.81
2022-09-10T19:06:08.618Z,96628.53
2022-09-10T19:08:37.205Z,96557.28
2022-09-10T19:11:05.111Z,96485.72
2022-09-10T19:13:32.231Z,96435.34
2022-09-10T19:15:59.884Z,96326.66
2022-09-10T19:18:29.634Z,96248.75
2022-09-10T19:20:56.402Z,96241.81
2022-09-10T19:23:23.630Z,96339.28
2022-09-10T19:25:54.184Z,96832.97
2022-09-10T19:28:20.714Z,96998.34
2022-09-10T19:30:47.748Z,97091.13
2022-09-10T19:33:18.113Z,97155.44
2022-09-10T19:35:44.741Z,97217.44
2022-09-10T19:38:34.020Z,97243.94
2022-09-10T19:41:08.325Z,97208.78
2022-09-10T19:43:36.260Z,97253.53
2022-09-10T19:46:06.925Z,97196.16
2022-09-10T19:48:33.559Z,97280.41
2022-09-10T19:51:01.070Z,97286.53
2022-09-10T19:53:27.510Z,97315.22
2022-09-10T19:55:54.024Z,97307.91
2022-09-10T19:58:20.371Z,97195.50
2022-09-10T20:00:47.419Z,97193.38
2022-09-10T20:03:14.585Z,97095.75
2022-09-10T20:05:42.622Z,97065.91
2022-09-10T20:08:09.763Z,97030.41
2022-09-10T20:10:37.695Z,96938.28
2022-09-10T20:13:04.765Z,96902.47
2022-09-10T20:15:32.005Z,96880.53
2022-09-10T20:17:58.472Z,96863.50
2022-09-10T20:20:24.891Z,96803.59
2022-09-10T20:22:51.602Z,96728.34
2022-09-10T20:25:18.029Z,96677.34
2022-09-10T20:27:44.392Z,96685.03
2022-09-10T20:30:11.741Z,96620.56
2022-09-10T20:32:38.141Z,96600.75
2022-09-10T20:35:05.577Z,96517.78
2022-09-10T20:37:31.945Z,96527.97
2022-09-10T20:39:58.463Z,96480.09
2022-09-10T20:42:27.736Z,96457.28
2022-09-10T20:44:55.399Z,96386.75
2022-09-10T20:47:24.185Z,96328.84
2022-09-10T20:49:50.633Z,96262.41
2022-09-10T20:52:17.433Z,96232.69
2022-09-10T20:54:43.804Z,96191.94
2022-09-10T20:57:11.402Z,96160.91
2022-09-10T20:59:37.774Z,96168.22
2022-09-10T21:02:04.257Z,96175.56
2022-09-10T21:04:30.696Z,96134.81
2022-09-10T21:06:57.088Z,96084.84
2022-09-10T21:09:23.472Z,96050.81
2022-09-10T21:11:50.677Z,96069.13
2022-09-10T21:14:18.576Z,96095.22
2022-09-10T21:16:47.166Z,96078.53
2022-09-10T21:19:15.061Z,96066.25
2022-09-10T21:21:43.582Z,96039.34
2022-09-10T21:24:14.793Z,96004.31
2022-09-10T21:26:43.200Z,95974.53
2022-09-10T21:29:14.665Z,95934.81
2022-09-10T21:31:41.385Z,95933.56
2022-09-10T21:34:07.896Z,95918.69
2022-09-10T21:36:35.789Z,95809.06
2022-09-10T21:39:03.605Z,95763.84
2022-09-10T21:41:44.054Z,95717.00
2022-09-10T21:44:14.095Z,95665.47
2022-09-10T21:46:41.770Z,95670.56
2022-09-10T21:49:08.227Z,95650.22
2022-09-10T21:51:34.621Z,95620.47
2022-09-10T21:54:01.860Z,95600.94
2022-09-10T21:56:29.554Z,95568.56
2022-09-10T21:58:59.310Z,95512.63
2022-09-10T22:01:27.674Z,95502.03
2022-09-10T22:04:00.079Z,95485.75
2022-09-10T22:06:28.129Z,95464.19
2022-09-10T22:08:59.074Z,95400.28
2022-09-10T22:11:39.266Z,95339.66
2022-09-10T22:14:08.058Z,95313.44
2022-09-10T22:16:35.067Z,95297.38
2022-09-10T22:19:03.131Z,95246.97
2022-09-10T22:21:29.847Z,95085.06
2022-09-10T22:23:56.302Z,95030.13
2022-09-10T22:26:24.181Z,95119.59
2022-09-10T22:28:59.517Z,95228.25
2022-09-10T22:31:31.467Z,95310.44
2022-09-10T22:34:01.371Z,95328.75
2022-09-10T22:36:31.363Z,95405.25
2022-09-10T22:39:21.313Z,95421.50
2022-09-10T22:41:48.828Z,95447.56
2022-09-10T22:44:17.556Z,95455.09
2022-09-10T22:46:43.979Z,95440.66
2022-09-10T22:49:10.517Z,95435.38
2022-09-10T22:51:39.843Z,95403.84
2022-09-10T22:54:06.742Z,95399.56
2022-09-10T22:56:33.274Z,95387.38
2022-09-10T22:58:59.904Z,95415.84
2022-09-10T23:01:28.255Z,95402.81
2022-09-10T23:03:59.182Z,95441.69
2022-09-10T23:06:26.967Z,95483.34
2022-09-10T23:08:54.573Z,95495.78
2022-09-10T23:11:22.834Z,95518.34
2022-09-10T23:13:54.224Z,95501.25
2022-09-10T23:16:22.915Z,95560.19
2022-09-10T23:18:50.645Z,95569.94
2022-09-10T23:21:20.443Z,95620.16
2022-09-10T23:23:47.567Z,95569.72
2022-09-10T23:26:14.031Z,95548.97
2022-09-10T23:28:42.062Z,95534.97
2022-09-10T23:31:16.159Z,95563.00
2022-09-10T23:33:43.715Z,95535.38
2022-09-10T23:36:13.148Z,95502.03
2022-09-10T23:38:40.621Z,95445.72
2022-09-10T23:41:07.149Z,95447.94
2022-09-10T23:43:33.707Z,95464.59
2022-09-10T23:46:00.275Z,95481.69
2022-09-10T23:48:26.844Z,95475.16
2022-09-10T23:50:53.974Z,95454.88
2022-09-10T23:53:20.673Z,95431.47
2022-09-10T23:55:47.293Z,95384.34
2022-09-10T23:58:14.093Z,95350.00
